Alaska Titan — WDE4789 — position and weather

sailwx.info

Track history (hours):
 
Tides and Currents Weather Stations Pressure Air Temp Water Temp Dewpoint Dewpoint Depression Visibility Wind Speed Wind Dir Waves Ship Positions

Alaska Titan

Owner: WESTERN TOWBOAT CO, Seattle, WA. More information available from US FCC via Universal Licensing System and Coast Guard Vessel Documentation Center.

Last reported at 2016-Jun-28 12:00 UTC. Time now 2016-Jun-28 16:53 UTC.
Position N 59°42' W 144°54'.

Length 40 m.

Type: Tow > 200 m length. MMSI: 367357890.

Wind from 100 at 15 knots

Waves 1.0 meters (3 feet), 7 second period

Barometer 1025.8 mb
Air temperature 12.2 ° C
Visibility: greater than 10.8 NM

Date/timePositionNaut miles runAvg speedWind from/ knotsBaromVisibWave heightAir tempDewpointWater temp
2016-Jun-28 12:00N 59°42' W 144°54'6110.1 100 / 151025.810.8 1.012.2
2016-Jun-28 06:00N 59°24' W 143°00'56 9.4 100 / 171024.9 5.4 1.512.2
2016-Jun-28 00:00N 59°12' W 141°12'56 9.3 100 / 20 10.8 1.016.9
2016-Jun-27 18:00N 59°06' W 139°24'55 9.2 090 / 171026.310.8 1.515.5
2016-Jun-27 12:00N 58°36' W 137°54'   130 / 201027.210.8 1.012.2
2016-Jun-24 18:32N 51°26' W 128°06'18 8.9
2016-Jun-24 16:31N 51°11' W 127°51'9 8.9
2016-Jun-24 15:33N 51°05' W 127°42'9 9.4
2016-Jun-24 14:33N 50°58' W 127°31'1010.2
2016-Jun-24 13:33N 50°52' W 127°19'8 8.2
2016-Jun-24 12:31N 50°46' W 127°09'19 9.0
2016-Jun-24 10:27N 50°36' W 126°44'56 9.6
2016-Jun-24 04:33N 50°13' W 125°23'8 8.2
2016-Jun-24 03:33N 50°06' W 125°17'4 3.7
2016-Jun-24 02:33N 50°03' W 125°14'5 4.6
2016-Jun-24 01:32N 49°59' W 125°11'4 4.3
2016-Jun-24 00:31N 49°56' W 125°06'6 6.6
2016-Jun-23 23:33N 49°52' W 124°59'9 9.5
2016-Jun-23 22:33N 49°46' W 124°48'1010.0
2016-Jun-23 21:33N 49°40' W 124°35'1010.3
2016-Jun-23 20:33N 49°34' W 124°22'1010.1
2016-Jun-23 19:33N 49°29' W 124°08'10 9.7
2016-Jun-23 18:33N 49°23' W 123°56'10 9.5
2016-Jun-23 17:33N 49°18' W 123°44'10 9.7
2016-Jun-23 16:33N 49°12' W 123°33'10 9.8
2016-Jun-23 15:33N 49°05' W 123°21'9 9.2
2016-Jun-23 14:33N 48°59' W 123°11'9 9.5
2016-Jun-23 13:33N 48°53' W 122°60'1110.6
2016-Jun-23 12:30N 48°46' W 122°47'8 8.6
2016-Jun-23 11:33N 48°38' W 122°44'9 9.1
2016-Jun-23 10:33N 48°29' W 122°44'13 9.1
2016-Jun-23 09:09N 48°16' W 122°47'16 9.7
2016-Jun-23 07:31N 48°02' W 122°38'19 9.9
2016-Jun-23 05:33N 47°44' W 122°26'8 8.3
2016-Jun-23 04:33N 47°36' W 122°22'1 0.9
2016-Jun-23 03:34N 47°35' W 122°21'0 0.0
2016-Jun-23 02:33N 47°35' W 122°21'0 0.0
2016-Jun-23 01:33N 47°35' W 122°21'1 0.6
2016-Jun-23 00:33N 47°35' W 122°22'0 0.1
2016-Jun-22 23:34N 47°35' W 122°22'3 2.8
2016-Jun-22 22:33N 47°37' W 122°25'3 2.6
2016-Jun-22 21:33N 47°40' W 122°24'1 1.4
2016-Jun-22 20:33N 47°39' W 122°22'0 0.0
2016-Jun-22 19:33N 47°39' W 122°22'0 0.0
2016-Jun-22 18:33N 47°39' W 122°22'0 0.0
2016-Jun-22 17:33N 47°39' W 122°22'0 0.0
2016-Jun-22 16:33N 47°39' W 122°22'0 0.0
2016-Jun-22 15:33N 47°39' W 122°22'0 0.0
2016-Jun-22 14:33N 47°39' W 122°22'  
Track history (hours):
 
Tides and Currents Weather Stations Pressure Air Temp Water Temp Dewpoint Dewpoint Depression Visibility Wind Speed Wind Dir Waves Ship Positions

Alaska Titan

Owner: WESTERN TOWBOAT CO, Seattle, WA. More information available from US FCC via Universal Licensing System and Coast Guard Vessel Documentation Center.

Last reported at 2016-Jun-28 12:00 UTC. Time now 2016-Jun-28 16:53 UTC.
Position N 59°42' W 144°54'.

Length 40 m.

Type: Tow > 200 m length. MMSI: 367357890.

Wind from 100 at 15 knots

Waves 1.0 meters (3 feet), 7 second period

Barometer 1025.8 mb
Air temperature 12.2 ° C
Visibility: greater than 10.8 NM

Date/timePositionNaut miles runAvg speedWind from/ knotsBaromVisibWave heightAir tempDewpointWater temp
2016-Jun-28 12:00N 59°42' W 144°54'6110.1 100 / 151025.810.8 1.012.2
2016-Jun-28 06:00N 59°24' W 143°00'56 9.4 100 / 171024.9 5.4 1.512.2
2016-Jun-28 00:00N 59°12' W 141°12'56 9.3 100 / 20 10.8 1.016.9
2016-Jun-27 18:00N 59°06' W 139°24'55 9.2 090 / 171026.310.8 1.515.5
2016-Jun-27 12:00N 58°36' W 137°54'   130 / 201027.210.8 1.012.2
2016-Jun-24 18:32N 51°26' W 128°06'18 8.9
2016-Jun-24 16:31N 51°11' W 127°51'9 8.9
2016-Jun-24 15:33N 51°05' W 127°42'9 9.4
2016-Jun-24 14:33N 50°58' W 127°31'1010.2
2016-Jun-24 13:33N 50°52' W 127°19'8 8.2
2016-Jun-24 12:31N 50°46' W 127°09'19 9.0
2016-Jun-24 10:27N 50°36' W 126°44'56 9.6
2016-Jun-24 04:33N 50°13' W 125°23'8 8.2
2016-Jun-24 03:33N 50°06' W 125°17'4 3.7
2016-Jun-24 02:33N 50°03' W 125°14'5 4.6
2016-Jun-24 01:32N 49°59' W 125°11'4 4.3
2016-Jun-24 00:31N 49°56' W 125°06'6 6.6
2016-Jun-23 23:33N 49°52' W 124°59'9 9.5
2016-Jun-23 22:33N 49°46' W 124°48'1010.0
2016-Jun-23 21:33N 49°40' W 124°35'1010.3
2016-Jun-23 20:33N 49°34' W 124°22'1010.1
2016-Jun-23 19:33N 49°29' W 124°08'10 9.7
2016-Jun-23 18:33N 49°23' W 123°56'10 9.5
2016-Jun-23 17:33N 49°18' W 123°44'10 9.7
2016-Jun-23 16:33N 49°12' W 123°33'10 9.8
2016-Jun-23 15:33N 49°05' W 123°21'9 9.2
2016-Jun-23 14:33N 48°59' W 123°11'9 9.5
2016-Jun-23 13:33N 48°53' W 122°60'1110.6
2016-Jun-23 12:30N 48°46' W 122°47'8 8.6
2016-Jun-23 11:33N 48°38' W 122°44'9 9.1
2016-Jun-23 10:33N 48°29' W 122°44'13 9.1
2016-Jun-23 09:09N 48°16' W 122°47'16 9.7
2016-Jun-23 07:31N 48°02' W 122°38'19 9.9
2016-Jun-23 05:33N 47°44' W 122°26'8 8.3
2016-Jun-23 04:33N 47°36' W 122°22'1 0.9
2016-Jun-23 03:34N 47°35' W 122°21'0 0.0
2016-Jun-23 02:33N 47°35' W 122°21'0 0.0
2016-Jun-23 01:33N 47°35' W 122°21'1 0.6
2016-Jun-23 00:33N 47°35' W 122°22'0 0.1
2016-Jun-22 23:34N 47°35' W 122°22'3 2.8
2016-Jun-22 22:33N 47°37' W 122°25'3 2.6
2016-Jun-22 21:33N 47°40' W 122°24'1 1.4
2016-Jun-22 20:33N 47°39' W 122°22'0 0.0
2016-Jun-22 19:33N 47°39' W 122°22'0 0.0
2016-Jun-22 18:33N 47°39' W 122°22'0 0.0
2016-Jun-22 17:33N 47°39' W 122°22'0 0.0
2016-Jun-22 16:33N 47°39' W 122°22'0 0.0
2016-Jun-22 15:33N 47°39' W 122°22'0 0.0
2016-Jun-22 14:33N 47°39' W 122°22'  

Dump ship's entire track history